Time;durP1;ratioP1;P1;durP2;ratioP2;P2;SDS_P1;SDS_P2;PMS_P1;PMS_P2;Temp;Humidity;BMP_temperature;BMP_pressure;BME280_temperature;BME280_humidity;BME280_pressure;Samples;Min_cycle;Max_cycle;Signal;HPM_P1;HPM_P2
2024/03/03 00:01:18;;;;;;;;;;;;;;;4.07;100.00;94187.09;10371219;28;2057;-67
2024/03/03 00:06:24;;;;;;;;;;;;;;;4.13;100.00;94191.31;10359806;28;2730;-66
2024/03/03 00:11:26;;;;;;;;;;;;;;;4.17;100.00;94184.41;10360247;28;2054;-66
2024/03/03 00:16:31;;;;;;;;;;;;;;;4.22;100.00;94188.91;10358551;28;1900;-66
2024/03/03 00:21:34;;;;;;;;;;;;;;;4.16;100.00;94188.13;10359170;28;2139;-67
2024/03/03 00:26:37;;;;;;;;;;;;;;;4.22;100.00;94181.72;10360666;28;2057;-72
2024/03/03 00:31:41;;;;;;;;;;;;;;;4.16;100.00;94176.72;10356588;28;1944;-66
2024/03/03 00:36:43;;;;;;;;;;;;;;;4.07;100.00;94165.81;10357654;28;1970;-67
2024/03/03 00:41:47;;;;;;;;;;;;;;;4.01;100.00;94167.72;10376041;28;2073;-70
2024/03/03 00:46:51;;;;;;;;;;;;;;;3.99;100.00;94163.72;10355603;28;2849;-66
2024/03/03 00:51:53;;;;;;;;;;;;;;;4.01;100.00;94159.75;10359453;28;1994;-65
2024/03/03 00:56:59;;;;;;;;;;;;;;;3.94;100.00;94155.78;10355380;28;2155;-64
2024/03/03 01:02:02;;;;;;;;;;;;;;;3.92;100.00;94139.31;10360241;28;2028;-67
2024/03/03 01:07:06;;;;;;;;;;;;;;;3.82;100.00;94147.28;10355998;28;1938;-65
2024/03/03 01:12:09;;;;;;;;;;;;;;;3.74;100.00;94130.84;10359837;28;2058;-65
2024/03/03 01:17:14;;;;;;;;;;;;;;;3.64;100.00;94114.94;10358008;28;2125;-66
2024/03/03 01:22:18;;;;;;;;;;;;;;;3.63;100.00;94117.88;10361597;28;2017;-65
2024/03/03 01:27:21;;;;;;;;;;;;;;;3.55;100.00;94113.91;10355070;28;2053;-65
2024/03/03 01:32:24;;;;;;;;;;;;;;;3.56;100.00;94101.41;10357782;28;2056;-65
2024/03/03 01:37:27;;;;;;;;;;;;;;;3.50;100.00;94103.31;10361456;28;3264;-66
2024/03/03 01:42:30;;;;;;;;;;;;;;;3.36;100.00;94103.06;10351356;28;2067;-65
2024/03/03 01:47:34;;;;;;;;;;;;;;;3.29;100.00;94101.75;10357810;28;2066;-66
2024/03/03 01:52:37;;;;;;;;;;;;;;;3.20;100.00;94096.19;10371294;28;2050;-67
2024/03/03 01:57:39;;;;;;;;;;;;;;;3.25;100.00;94093.53;10358915;28;2074;-66
2024/03/03 02:02:42;;;;;;;;;;;;;;;3.28;100.00;94086.88;10354799;28;2699;-65
2024/03/03 02:07:44;;;;;;;;;;;;;;;3.20;100.00;94077.59;10354551;28;1946;-66
2024/03/03 02:12:48;;;;;;;;;;;;;;;3.09;100.00;94071.50;10352006;28;2062;-66
2024/03/03 02:17:50;;;;;;;;;;;;;;;3.08;100.00;94075.22;10354701;28;3123;-66
2024/03/03 02:22:54;;;;;;;;;;;;;;;3.17;100.00;94083.44;10354830;28;2010;-66
2024/03/03 02:27:57;;;;;;;;;;;;;;;3.17;100.00;94067.50;10351610;28;2046;-66
2024/03/03 02:33:00;;;;;;;;;;;;;;;3.14;100.00;94052.91;10359039;28;1979;-66
2024/03/03 02:38:04;;;;;;;;;;;;;;;3.13;100.00;94053.19;10352427;28;2066;-66
2024/03/03 02:43:06;;;;;;;;;;;;;;;3.16;100.00;94050.78;10355172;28;2150;-67
2024/03/03 02:48:09;;;;;;;;;;;;;;;3.07;100.00;94043.66;10352973;28;2098;-65
2024/03/03 02:53:12;;;;;;;;;;;;;;;3.06;100.00;94045.50;10351026;28;2069;-65
2024/03/03 02:58:15;;;;;;;;;;;;;;;3.03;100.00;94046.03;10356918;28;3036;-75
2024/03/03 03:03:17;;;;;;;;;;;;;;;3.08;100.00;94054.00;10355346;28;2484;-68
2024/03/03 03:08:20;;;;;;;;;;;;;;;3.09;100.00;94052.94;10354992;28;1918;-67
2024/03/03 03:13:22;;;;;;;;;;;;;;;3.08;100.00;94039.94;10367048;28;1971;-65
2024/03/03 03:18:25;;;;;;;;;;;;;;;3.13;100.00;94046.03;10362091;28;2062;-65
2024/03/03 03:23:28;;;;;;;;;;;;;;;3.15;100.00;94038.56;10373703;28;1961;-66
2024/03/03 03:28:31;;;;;;;;;;;;;;;3.22;100.00;94052.38;10367230;28;2066;-66
2024/03/03 03:33:34;;;;;;;;;;;;;;;3.12;100.00;94049.75;10359438;28;2137;-66
2024/03/03 03:38:37;;;;;;;;;;;;;;;3.02;100.00;94044.44;10360031;28;2011;-67
2024/03/03 03:43:40;;;;;;;;;;;;;;;3.09;100.00;94055.59;10366235;28;1977;-66
2024/03/03 03:48:42;;;;;;;;;;;;;;;3.01;100.00;94050.81;10360087;28;2814;-65
2024/03/03 03:53:47;;;;;;;;;;;;;;;2.98;100.00;94051.34;10353438;28;2121;-65
2024/03/03 03:58:49;;;;;;;;;;;;;;;2.94;100.00;94066.22;10365003;28;1980;-67
2024/03/03 04:03:52;;;;;;;;;;;;;;;2.94;100.00;94059.06;10361765;28;2173;-65
2024/03/03 04:08:55;;;;;;;;;;;;;;;2.92;100.00;94060.38;10360571;28;2054;-69
2024/03/03 04:13:58;;;;;;;;;;;;;;;2.81;100.00;94064.13;10357010;28;1901;-65
2024/03/03 04:19:01;;;;;;;;;;;;;;;2.69;100.00;94062.53;10359907;28;2074;-64
2024/03/03 04:24:04;;;;;;;;;;;;;;;2.60;100.00;94058.81;10353198;28;1991;-64
2024/03/03 04:29:07;;;;;;;;;;;;;;;2.62;100.00;94055.91;10364989;28;2725;-66
2024/03/03 04:34:10;;;;;;;;;;;;;;;2.54;100.00;94054.56;10361755;28;2217;-65
2024/03/03 04:39:13;;;;;;;;;;;;;;;2.52;100.00;94061.19;10363521;28;6541;-66
2024/03/03 04:44:16;;;;;;;;;;;;;;;2.51;100.00;94051.66;10360426;28;2062;-66
2024/03/03 04:49:19;;;;;;;;;;;;;;;2.54;100.00;94045.81;10358314;28;2156;-65
2024/03/03 04:54:22;;;;;;;;;;;;;;;2.63;100.00;94049.53;10365457;28;2117;-65
2024/03/03 04:59:25;;;;;;;;;;;;;;;2.54;100.00;94048.47;10359811;28;1956;-67
2024/03/03 05:04:28;;;;;;;;;;;;;;;2.54;100.00;94049.25;10372285;28;2067;-69
2024/03/03 05:09:31;;;;;;;;;;;;;;;2.51;100.00;94049.78;10371467;28;1960;-66
2024/03/03 05:14:34;;;;;;;;;;;;;;;2.49;100.00;94061.75;10374500;28;2057;-67
2024/03/03 05:19:37;;;;;;;;;;;;;;;2.45;100.00;94061.47;10357201;28;2070;-77
2024/03/03 05:24:40;;;;;;;;;;;;;;;2.45;100.00;94066.75;10370443;28;2077;-68
2024/03/03 05:29:43;;;;;;;;;;;;;;;2.54;100.00;94072.31;10364516;28;1995;-69
2024/03/03 05:34:45;;;;;;;;;;;;;;;2.47;100.00;94064.63;10357410;28;2707;-71
2024/03/03 05:39:49;;;;;;;;;;;;;;;2.50;100.00;94064.13;10373640;28;2121;-68
2024/03/03 05:44:52;;;;;;;;;;;;;;;2.62;100.00;94072.63;10356096;28;1941;-71
2024/03/03 05:49:55;;;;;;;;;;;;;;;2.68;100.00;94071.56;10365498;28;1909;-66
2024/03/03 05:54:58;;;;;;;;;;;;;;;2.71;100.00;94076.31;10368548;28;2134;-68
2024/03/03 06:00:00;;;;;;;;;;;;;;;2.69;100.00;94073.16;10364045;28;2007;-66
2024/03/03 06:05:04;;;;;;;;;;;;;;;2.74;100.00;94082.97;10372205;28;2020;-65
2024/03/03 06:10:10;;;;;;;;;;;;;;;2.83;100.00;94083.22;10365081;28;2123;-67
2024/03/03 06:15:13;;;;;;;;;;;;;;;2.87;100.00;94071.03;10354744;28;2394;-67
2024/03/03 06:20:16;;;;;;;;;;;;;;;3.02;100.00;94064.88;10352296;28;2029;-66
2024/03/03 06:25:18;;;;;;;;;;;;;;;3.10;100.00;94062.47;10357318;28;2113;-66
2024/03/03 06:30:21;;;;;;;;;;;;;;;3.30;100.00;94076.78;10362344;28;2160;-67
2024/03/03 06:35:24;;;;;;;;;;;;;;;3.55;100.00;94071.38;10361789;28;2046;-67
2024/03/03 06:40:27;;;;;;;;;;;;;;;3.87;100.00;94067.53;10366927;28;1936;-66
2024/03/03 06:45:30;;;;;;;;;;;;;;;4.06;100.00;94064.00;10356927;28;2297;-69
2024/03/03 06:50:33;;;;;;;;;;;;;;;4.25;100.00;94060.69;10358473;28;1895;-67
2024/03/03 06:55:35;;;;;;;;;;;;;;;4.41;100.00;94064.06;10351973;28;2257;-66
2024/03/03 07:00:38;;;;;;;;;;;;;;;4.47;100.00;94060.31;10352887;28;1982;-69
2024/03/03 07:05:41;;;;;;;;;;;;;;;4.72;100.00;94061.97;10354226;28;1930;-69
2024/03/03 07:10:45;;;;;;;;;;;;;;;5.00;100.00;94065.72;10374343;28;2478;-68
2024/03/03 07:15:47;;;;;;;;;;;;;;;5.28;100.00;94072.94;10355095;28;2150;-67
2024/03/03 07:20:50;;;;;;;;;;;;;;;5.57;100.00;94069.44;10355830;28;1925;-66
2024/03/03 07:25:53;;;;;;;;;;;;;;;6.02;100.00;94059.31;10371011;28;1952;-66
2024/03/03 07:30:55;;;;;;;;;;;;;;;6.25;100.00;94063.81;10357798;28;2133;-67
2024/03/03 07:35:59;;;;;;;;;;;;;;;6.71;100.00;94053.28;10353731;28;1853;-68
2024/03/03 07:41:02;;;;;;;;;;;;;;;6.91;100.00;94048.69;10376821;28;2091;-69
2024/03/03 07:46:04;;;;;;;;;;;;;;;7.19;100.00;94045.00;10355270;28;2191;-68
2024/03/03 07:51:06;;;;;;;;;;;;;;;7.64;100.00;94049.81;10351094;28;2585;-67
2024/03/03 07:56:09;;;;;;;;;;;;;;;8.10;100.00;94047.81;10366426;28;2038;-69
2024/03/03 08:01:12;;;;;;;;;;;;;;;8.57;100.00;94051.09;10362731;28;1919;-68
2024/03/03 08:06:15;;;;;;;;;;;;;;;8.96;100.00;94054.22;10375829;28;2110;-68
2024/03/03 08:11:19;;;;;;;;;;;;;;;9.10;100.00;94050.38;10361526;28;2213;-69
2024/03/03 08:16:23;;;;;;;;;;;;;;;9.29;100.00;94054.72;10362371;28;1999;-69
2024/03/03 08:21:26;;;;;;;;;;;;;;;9.34;100.00;94050.03;10350477;28;1936;-68
2024/03/03 08:26:28;;;;;;;;;;;;;;;9.48;100.00;94047.28;10358315;28;2015;-69
2024/03/03 08:31:35;;;;;;;;;;;;;;;9.57;100.00;94042.75;10354087;28;2272;-69
2024/03/03 08:36:38;;;;;;;;;;;;;;;9.90;100.00;94043.19;10360676;28;2461;-68
2024/03/03 08:41:40;;;;;;;;;;;;;;;10.18;100.00;94051.81;10359976;28;2350;-68
2024/03/03 08:46:43;;;;;;;;;;;;;;;10.44;100.00;94051.09;10367045;28;2051;-68
2024/03/03 08:51:46;;;;;;;;;;;;;;;10.70;100.00;94048.44;10358756;28;2257;-68
2024/03/03 08:56:49;;;;;;;;;;;;;;;11.16;100.00;94039.69;10366528;28;2042;-69
2024/03/03 09:01:51;;;;;;;;;;;;;;;11.74;100.00;94035.56;10359070;28;2060;-69
2024/03/03 09:06:55;;;;;;;;;;;;;;;12.40;100.00;94027.00;10378050;28;1918;-69
2024/03/03 09:11:58;;;;;;;;;;;;;;;12.71;100.00;94032.03;10361833;28;2031;-69
2024/03/03 09:17:03;;;;;;;;;;;;;;;13.25;96.57;94029.38;10362850;28;2734;-69
2024/03/03 09:22:05;;;;;;;;;;;;;;;13.94;93.42;94025.91;10356386;28;2180;-69
2024/03/03 09:27:08;;;;;;;;;;;;;;;14.24;87.21;94020.28;10367367;28;1910;-69
2024/03/03 09:32:11;;;;;;;;;;;;;;;14.09;73.85;94024.44;10362953;28;1998;-71
2024/03/03 09:37:14;;;;;;;;;;;;;;;14.29;60.60;94022.75;10354032;28;2218;-69
2024/03/03 09:42:17;;;;;;;;;;;;;;;14.59;56.85;94015.97;10353230;28;1933;-68
2024/03/03 09:47:20;;;;;;;;;;;;;;;15.05;53.39;94007.63;10356366;28;1962;-74
2024/03/03 09:52:22;;;;;;;;;;;;;;;15.14;51.13;94010.94;10374765;28;2046;-70
2024/03/03 09:57:26;;;;;;;;;;;;;;;15.37;47.54;94016.59;10357244;28;2484;-70
2024/03/03 10:02:28;;;;;;;;;;;;;;;15.34;48.62;94006.47;10363434;28;2638;-68
2024/03/03 10:07:31;;;;;;;;;;;;;;;15.53;44.58;94003.91;10358762;28;2272;-69
2024/03/03 10:12:34;;;;;;;;;;;;;;;15.78;44.21;94009.19;10370805;28;2082;-69
2024/03/03 10:17:37;;;;;;;;;;;;;;;15.76;42.36;94012.22;10355081;28;2022;-67
2024/03/03 10:22:40;;;;;;;;;;;;;;;15.76;42.15;94006.03;10350963;28;1967;-68
2024/03/03 10:27:44;;;;;;;;;;;;;;;15.54;42.45;94007.38;10352767;28;2027;-69
2024/03/03 10:32:47;;;;;;;;;;;;;;;15.71;39.86;94000.88;10357015;28;2047;-72
2024/03/03 10:37:51;;;;;;;;;;;;;;;16.01;40.32;93996.59;10341854;28;2041;-68
2024/03/03 10:42:54;;;;;;;;;;;;;;;16.04;42.85;93987.78;10367396;28;2472;-70
2024/03/03 10:47:57;;;;;;;;;;;;;;;15.85;47.09;93993.13;10353799;28;2039;-69
2024/03/03 10:53:00;;;;;;;;;;;;;;;15.89;48.93;93993.97;10359153;28;1878;-69
2024/03/03 10:58:04;;;;;;;;;;;;;;;15.98;49.47;94000.00;10357657;28;1924;-70
2024/03/03 11:03:09;;;;;;;;;;;;;;;16.01;51.49;93995.81;10356093;28;2013;-68
2024/03/03 11:08:13;;;;;;;;;;;;;;;15.92;48.82;93994.06;10354235;28;1949;-69
2024/03/03 11:13:16;;;;;;;;;;;;;;;16.01;44.16;93980.31;10349409;28;2156;-68
2024/03/03 11:18:20;;;;;;;;;;;;;;;16.13;50.42;93972.09;10354526;28;1988;-68
2024/03/03 11:23:22;;;;;;;;;;;;;;;16.52;48.56;93977.59;10356624;28;1979;-68
2024/03/03 11:28:25;;;;;;;;;;;;;;;16.52;55.95;93971.41;10358294;28;1968;-69
2024/03/03 11:33:28;;;;;;;;;;;;;;;16.86;51.52;93953.53;10355594;28;2378;-69
2024/03/03 11:38:30;;;;;;;;;;;;;;;16.92;48.06;93946.69;10364328;28;2066;-68
2024/03/03 11:43:34;;;;;;;;;;;;;;;17.01;45.47;93944.53;10363256;28;2008;-68
2024/03/03 11:48:36;;;;;;;;;;;;;;;16.90;44.46;93938.13;10360696;28;1991;-68
2024/03/03 11:53:39;;;;;;;;;;;;;;;17.19;40.96;93929.38;10364696;28;2003;-71
2024/03/03 11:58:43;;;;;;;;;;;;;;;17.02;40.68;93927.09;10354689;28;2029;-71
2024/03/03 12:03:46;;;;;;;;;;;;;;;17.15;39.59;93916.88;10355779;28;2200;-69
2024/03/03 12:08:49;;;;;;;;;;;;;;;16.88;41.79;93913.28;10360943;28;1900;-68
2024/03/03 12:13:52;;;;;;;;;;;;;;;16.89;40.36;93902.06;10366999;28;2062;-68
2024/03/03 12:18:55;;;;;;;;;;;;;;;16.87;37.73;93890.78;10356174;28;2102;-71
2024/03/03 12:23:57;;;;;;;;;;;;;;;16.38;40.10;93901.38;10372319;28;2133;-71
2024/03/03 12:29:00;;;;;;;;;;;;;;;16.03;42.45;93899.47;10358278;28;2068;-68
2024/03/03 12:34:03;;;;;;;;;;;;;;;15.89;42.47;93899.13;10361705;28;1899;-69
2024/03/03 12:39:08;;;;;;;;;;;;;;;16.05;42.63;93897.19;10360447;28;2310;-68
2024/03/03 12:44:11;;;;;;;;;;;;;;;16.44;41.50;93889.13;10355440;28;2158;-68
2024/03/03 12:49:13;;;;;;;;;;;;;;;16.58;40.36;93883.97;10358853;28;2006;-68
2024/03/03 12:54:16;;;;;;;;;;;;;;;16.85;38.92;93884.13;10355004;28;2200;-68
2024/03/03 12:59:22;;;;;;;;;;;;;;;16.73;39.16;93880.44;10365094;28;2622;-69
2024/03/03 13:04:25;;;;;;;;;;;;;;;16.88;37.68;93883.41;10352734;28;1978;-69
2024/03/03 13:09:28;;;;;;;;;;;;;;;17.11;37.98;93870.66;10351682;28;2054;-70
2024/03/03 13:14:33;;;;;;;;;;;;;;;17.08;33.94;93868.66;10353557;28;2113;-68
2024/03/03 13:19:36;;;;;;;;;;;;;;;17.07;32.38;93858.97;10360316;28;2015;-69
2024/03/03 13:24:38;;;;;;;;;;;;;;;16.99;31.16;93854.56;10364405;28;2122;-69
2024/03/03 13:29:43;;;;;;;;;;;;;;;16.74;32.47;93846.75;10356364;28;2054;-70
2024/03/03 13:34:46;;;;;;;;;;;;;;;16.79;33.27;93855.72;10355776;28;2137;-69
2024/03/03 13:39:48;;;;;;;;;;;;;;;16.72;31.78;93854.44;10353473;28;2117;-67
2024/03/03 13:44:51;;;;;;;;;;;;;;;16.96;29.95;93855.25;10355372;28;2145;-68
2024/03/03 13:49:54;;;;;;;;;;;;;;;16.95;30.84;93859.13;10353992;28;2252;-70
2024/03/03 13:54:57;;;;;;;;;;;;;;;16.67;31.13;93860.13;10358531;28;2759;-68
2024/03/03 14:00:00;;;;;;;;;;;;;;;16.58;31.08;93862.28;10357782;28;2001;-71
2024/03/03 14:05:03;;;;;;;;;;;;;;;16.55;30.49;93846.72;10359525;28;2066;-72
2024/03/03 14:10:06;;;;;;;;;;;;;;;16.37;31.20;93845.59;10354409;28;1991;-73
2024/03/03 14:15:08;;;;;;;;;;;;;;;16.20;32.61;93852.19;10357525;28;2037;-69
2024/03/03 14:20:12;;;;;;;;;;;;;;;16.16;32.11;93854.84;10354261;28;2137;-71
2024/03/03 14:25:15;;;;;;;;;;;;;;;16.02;33.86;93857.22;10354486;28;1992;-71
2024/03/03 14:30:18;;;;;;;;;;;;;;;15.75;33.80;93855.47;10358019;28;2113;-71
2024/03/03 14:35:21;;;;;;;;;;;;;;;15.61;33.85;93869.44;10358410;28;2294;-70
2024/03/03 14:40:24;;;;;;;;;;;;;;;15.60;32.69;93871.38;10355095;28;2053;-70
2024/03/03 14:45:27;;;;;;;;;;;;;;;15.55;32.70;93881.69;10353947;28;2058;-72
2024/03/03 14:50:30;;;;;;;;;;;;;;;15.39;32.19;93879.75;10364236;28;1883;-69
2024/03/03 14:55:33;;;;;;;;;;;;;;;15.13;33.42;93876.78;10358283;28;2127;-70
2024/03/03 15:00:37;;;;;;;;;;;;;;;15.04;32.48;93890.47;10359859;28;2203;-70
2024/03/03 15:05:41;;;;;;;;;;;;;;;14.89;32.79;93885.84;10369463;28;2019;-69
2024/03/03 15:10:43;;;;;;;;;;;;;;;14.78;31.90;93895.59;10360003;28;2229;-69
2024/03/03 15:15:46;;;;;;;;;;;;;;;14.67;32.92;93891.78;10373069;28;1921;-78
2024/03/03 15:20:49;;;;;;;;;;;;;;;14.70;32.29;93891.13;10362922;28;2137;-74
2024/03/03 15:25:51;;;;;;;;;;;;;;;14.74;33.99;93890.06;10357609;28;2058;-72
2024/03/03 15:30:54;;;;;;;;;;;;;;;14.71;32.78;93887.28;10353732;28;1938;-69
2024/03/03 15:35:58;;;;;;;;;;;;;;;14.79;33.23;93889.03;10354176;28;2151;-68
2024/03/03 15:41:01;;;;;;;;;;;;;;;14.82;33.79;93893.75;10355823;28;2237;-69
2024/03/03 15:46:04;;;;;;;;;;;;;;;14.80;32.04;93893.31;10360245;28;2962;-68
2024/03/03 15:51:07;;;;;;;;;;;;;;;14.65;32.53;93894.84;10368554;28;2263;-70
2024/03/03 15:56:11;;;;;;;;;;;;;;;14.57;32.99;93893.88;10366956;28;1956;-69
2024/03/03 16:01:14;;;;;;;;;;;;;;;14.33;32.77;93900.13;10362630;28;2082;-69
2024/03/03 16:06:17;;;;;;;;;;;;;;;14.18;33.92;93903.50;10354203;28;2083;-70
2024/03/03 16:11:20;;;;;;;;;;;;;;;14.14;33.08;93907.25;10358548;28;2072;-73
2024/03/03 16:16:25;;;;;;;;;;;;;;;14.00;33.60;93911.09;10353524;28;3157;-69
2024/03/03 16:21:30;;;;;;;;;;;;;;;13.84;34.36;93917.53;10364389;28;2302;-69
2024/03/03 16:26:33;;;;;;;;;;;;;;;13.74;32.81;93916.06;10376980;28;2102;-68
2024/03/03 16:31:37;;;;;;;;;;;;;;;13.56;33.92;93922.84;10362227;28;2035;-70
2024/03/03 16:36:39;;;;;;;;;;;;;;;13.31;34.52;93912.03;10360499;28;2037;-72
2024/03/03 16:41:42;;;;;;;;;;;;;;;13.20;34.35;93913.53;10358225;28;2818;-71
2024/03/03 16:46:44;;;;;;;;;;;;;;;12.97;35.44;93919.31;10357076;28;2116;-70
2024/03/03 16:51:48;;;;;;;;;;;;;;;12.80;35.70;93927.59;10364420;28;1889;-71
2024/03/03 16:56:50;;;;;;;;;;;;;;;12.59;36.38;93922.22;10365145;28;1909;-69
2024/03/03 17:01:53;;;;;;;;;;;;;;;12.48;36.22;93931.88;10350792;28;1976;-68
2024/03/03 17:06:57;;;;;;;;;;;;;;;12.14;37.49;93936.38;10361369;28;1943;-70
2024/03/03 17:12:00;;;;;;;;;;;;;;;12.00;38.36;93937.75;10370051;28;2232;-68
2024/03/03 17:17:03;;;;;;;;;;;;;;;11.87;38.03;93943.06;10357022;28;1916;-68
2024/03/03 17:22:06;;;;;;;;;;;;;;;11.77;39.01;93940.72;10360444;28;3027;-68
2024/03/03 17:27:09;;;;;;;;;;;;;;;11.62;39.30;93949.34;10354063;28;2274;-68
2024/03/03 17:32:16;;;;;;;;;;;;;;;11.53;39.54;93948.59;10352422;28;1970;-69
2024/03/03 17:37:19;;;;;;;;;;;;;;;11.37;39.92;93959.09;10373184;28;2077;-72
2024/03/03 17:42:22;;;;;;;;;;;;;;;11.38;39.55;93955.28;10360360;28;2054;-68
2024/03/03 17:47:25;;;;;;;;;;;;;;;11.27;40.31;93960.25;10350634;28;2205;-71
2024/03/03 17:52:29;;;;;;;;;;;;;;;11.18;40.04;93954.09;10350907;28;2036;-70
2024/03/03 17:57:32;;;;;;;;;;;;;;;11.10;41.02;93965.66;10367960;28;1897;-70
2024/03/03 18:02:38;;;;;;;;;;;;;;;10.88;42.35;93973.91;10363086;28;2865;-69
2024/03/03 18:07:40;;;;;;;;;;;;;;;10.85;42.57;93974.56;10356916;28;2105;-71
2024/03/03 18:12:43;;;;;;;;;;;;;;;10.75;42.00;93978.38;10350193;28;1897;-68
2024/03/03 18:17:46;;;;;;;;;;;;;;;10.63;43.00;93984.41;10361023;28;2063;-69
2024/03/03 18:22:49;;;;;;;;;;;;;;;10.66;42.77;93973.00;10358506;28;2121;-69
2024/03/03 18:27:52;;;;;;;;;;;;;;;10.32;45.31;93983.78;10355909;28;2025;-68
2024/03/03 18:32:54;;;;;;;;;;;;;;;10.15;45.42;93989.88;10354570;28;2038;-68
2024/03/03 18:37:57;;;;;;;;;;;;;;;9.85;48.72;93991.53;10347214;28;1931;-68
2024/03/03 18:43:00;;;;;;;;;;;;;;;9.57;50.12;93991.78;10360972;28;2750;-68
2024/03/03 18:48:03;;;;;;;;;;;;;;;9.44;51.91;93998.03;10350538;28;2010;-69
2024/03/03 18:53:06;;;;;;;;;;;;;;;9.44;50.57;94003.41;10351543;28;2034;-67
2024/03/03 18:58:09;;;;;;;;;;;;;;;9.53;52.22;93998.84;10350982;28;2130;-67
2024/03/03 19:03:12;;;;;;;;;;;;;;;9.52;50.56;94008.00;10361883;28;2010;-69
2024/03/03 19:08:15;;;;;;;;;;;;;;;9.32;51.94;94016.59;10357070;28;2043;-68
2024/03/03 19:13:18;;;;;;;;;;;;;;;9.26;52.61;94007.09;10357546;28;2186;-70
2024/03/03 19:18:21;;;;;;;;;;;;;;;9.13;54.16;94012.25;10353111;28;2329;-71
2024/03/03 19:23:24;;;;;;;;;;;;;;;9.10;54.02;94020.91;10360550;28;2086;-69
2024/03/03 19:28:27;;;;;;;;;;;;;;;9.12;53.76;94024.06;10353960;28;2062;-68
2024/03/03 19:33:29;;;;;;;;;;;;;;;9.24;55.38;94031.53;10355838;28;2110;-68
2024/03/03 19:38:32;;;;;;;;;;;;;;;9.16;55.39;94038.44;10354883;28;2641;-69
2024/03/03 19:43:36;;;;;;;;;;;;;;;9.14;53.72;94040.63;10360430;28;2038;-71
2024/03/03 19:48:39;;;;;;;;;;;;;;;9.14;54.32;94050.56;10350478;28;2120;-69
2024/03/03 19:53:43;;;;;;;;;;;;;;;9.02;55.47;94051.09;10356663;28;2156;-68
2024/03/03 19:58:48;;;;;;;;;;;;;;;9.15;55.73;94049.44;10369116;28;2096;-68
2024/03/03 20:03:52;;;;;;;;;;;;;;;8.88;60.97;94056.53;10351798;28;2078;-70
2024/03/03 20:08:55;;;;;;;;;;;;;;;8.75;60.52;94051.22;10362318;28;1989;-70
2024/03/03 20:13:58;;;;;;;;;;;;;;;8.70;61.25;94056.72;10365505;28;1987;-68
2024/03/03 20:19:01;;;;;;;;;;;;;;;8.64;63.51;94062.16;10376518;28;2148;-69
2024/03/03 20:24:04;;;;;;;;;;;;;;;8.54;64.35;94067.78;10364096;28;2098;-68
2024/03/03 20:29:07;;;;;;;;;;;;;;;8.63;63.42;94079.34;10358451;28;2113;-68
2024/03/03 20:34:15;;;;;;;;;;;;;;;8.52;66.84;94080.66;10366911;28;2713;-69
2024/03/03 20:39:17;;;;;;;;;;;;;;;8.43;67.89;94089.72;10356479;28;2239;-71
2024/03/03 20:44:20;;;;;;;;;;;;;;;8.49;66.70;94085.84;10354329;28;1999;-68
2024/03/03 20:49:24;;;;;;;;;;;;;;;8.55;66.80;94104.16;10372653;28;1983;-69
2024/03/03 20:54:27;;;;;;;;;;;;;;;8.54;65.97;94102.59;10352217;28;2003;-68
2024/03/03 20:59:29;;;;;;;;;;;;;;;8.36;71.85;94098.16;10360387;28;1920;-69
2024/03/03 21:04:32;;;;;;;;;;;;;;;8.35;72.18;94117.97;10357173;28;1944;-68
2024/03/03 21:09:35;;;;;;;;;;;;;;;8.22;77.27;94118.78;10350875;28;1973;-69
2024/03/03 21:14:38;;;;;;;;;;;;;;;8.13;81.78;94122.13;10351742;28;2241;-69
2024/03/03 21:19:41;;;;;;;;;;;;;;;7.99;82.63;94131.25;10362533;28;2325;-74
2024/03/03 21:24:51;;;;;;;;;;;;;;;7.95;85.17;94132.94;10362101;28;2115;-70
2024/03/03 21:29:53;;;;;;;;;;;;;;;7.84;86.49;94137.69;10356339;28;2137;-75
2024/03/03 21:34:56;;;;;;;;;;;;;;;7.87;84.23;94139.75;10362462;28;2113;-74
2024/03/03 21:39:59;;;;;;;;;;;;;;;7.81;85.82;94135.59;10358752;28;2320;-72
2024/03/03 21:45:01;;;;;;;;;;;;;;;7.84;85.95;94145.72;10355728;28;2032;-67
2024/03/03 21:50:05;;;;;;;;;;;;;;;7.88;85.77;94149.38;10350346;28;1999;-68
2024/03/03 21:55:07;;;;;;;;;;;;;;;7.88;85.45;94152.03;10351249;28;1928;-69
2024/03/03 22:00:12;;;;;;;;;;;;;;;7.76;89.08;94149.06;10353178;28;2137;-70
2024/03/03 22:05:14;;;;;;;;;;;;;;;7.77;90.06;94154.13;10360924;28;2069;-73
2024/03/03 22:10:17;;;;;;;;;;;;;;;7.87;84.83;94147.78;10354790;28;2696;-67
2024/03/03 22:15:20;;;;;;;;;;;;;;;7.95;81.17;94152.47;10360374;28;2278;-67
2024/03/03 22:20:25;;;;;;;;;;;;;;;7.98;83.53;94157.22;10358894;28;2058;-68
2024/03/03 22:25:28;;;;;;;;;;;;;;;8.12;81.09;94159.91;10352355;28;2243;-67
2024/03/03 22:30:31;;;;;;;;;;;;;;;8.11;79.91;94161.78;10357366;28;2090;-68
2024/03/03 22:35:34;;;;;;;;;;;;;;;8.13;78.35;94167.63;10354915;28;2048;-68
2024/03/03 22:40:38;;;;;;;;;;;;;;;8.10;75.24;94176.25;10370071;28;1975;-67
2024/03/03 22:45:40;;;;;;;;;;;;;;;8.05;79.96;94173.69;10357819;28;1929;-69
2024/03/03 22:50:43;;;;;;;;;;;;;;;7.92;79.70;94179.81;10351788;28;2065;-68
2024/03/03 22:55:45;;;;;;;;;;;;;;;7.88;79.38;94184.16;10357222;28;2015;-68
2024/03/03 23:00:48;;;;;;;;;;;;;;;7.70;81.67;94198.38;10359976;28;2118;-68
2024/03/03 23:05:51;;;;;;;;;;;;;;;7.69;79.99;94196.78;10353649;28;1962;-69
2024/03/03 23:10:55;;;;;;;;;;;;;;;7.65;80.43;94206.50;10354489;28;2048;-67
2024/03/03 23:15:57;;;;;;;;;;;;;;;7.54;79.57;94206.66;10357282;28;2744;-69
2024/03/03 23:21:01;;;;;;;;;;;;;;;7.38;84.44;94208.00;10351947;28;2124;-71
2024/03/03 23:26:04;;;;;;;;;;;;;;;7.21;91.37;94215.75;10359144;28;2003;-71
2024/03/03 23:31:07;;;;;;;;;;;;;;;7.02;96.94;94226.44;10361068;28;1918;-69
2024/03/03 23:36:12;;;;;;;;;;;;;;;6.88;98.53;94231.72;10365346;28;2005;-68
2024/03/03 23:41:15;;;;;;;;;;;;;;;6.78;100.00;94227.28;10360076;28;2091;-68
2024/03/03 23:46:18;;;;;;;;;;;;;;;6.78;99.91;94232.63;10362246;28;1957;-68
2024/03/03 23:51:21;;;;;;;;;;;;;;;6.82;100.00;94238.19;10357075;28;2241;-68
2024/03/03 23:56:24;;;;;;;;;;;;;;;6.93;99.70;94254.88;10362454;28;2054;-70
